CheckWX is a tool to help pilots better visualize weather data.  It is not intended as a substitute for an official pre-flight weather briefing.

13:53:22 UTC

KLIT METAR
Bill and Hillary Clinton National / Adams Field Airport
Little Rock, Arkansas, USA
Current

26 mins ago

KLIT 311327Z 01011KT 10SM SCT007 OVC010 09/08 A2998 RMK AO2 RAE15 P0000 T00940083
Observed
Mar-31 @ 13:27 UTC
Wind
  • 010° at 11 KTS
Visibility
10 SM
Flight Rules
MVFR
Cloud Levels
  • Scattered at 700' AGL
  • Overcast at 1,000' AGL
Temperature
C / 48°F
Dewpoint
C / 46°F
Humidity
94%
Altimeter
29.98" Hg
Pressure
1015.22 hPa
Current Rain
0.01"
Previous

33 mins ago

KLIT 311320Z 01012G21KT 6SM BR BKN007 OVC010 09/08 A2998 RMK AO2 RAE15 P0000 T00940083
Observed
Mar-31 @ 13:20 UTC
Wind
  • 010° at 12 KTS
  • Gusting to 21 KTS
Visibility
6 SM
Flight Rules
IFR
Conditions
Mist
Cloud Levels
  • Broken at 700' AGL
  • Overcast at 1,000' AGL
Temperature
C / 48°F
Dewpoint
C / 46°F
Humidity
94%
Altimeter
29.98" Hg
Pressure
1015.22 hPa
Current Rain
0.01"
Previous

1 hour ago

KLIT 311237Z 36009KT 2SM -RA BR BKN006 OVC010 10/09 A2995 RMK AO2 P0004 T01000094
Observed
Mar-31 @ 12:37 UTC
Wind
  • 360° at 9 KTS
Visibility
2 SM
Flight Rules
IFR
Conditions
Light Rain, Mist
Cloud Levels
  • Broken at 600' AGL
  • Overcast at 1,000' AGL
Temperature
10°C / 50°F
Dewpoint
C / 48°F
Humidity
94%
Altimeter
29.95" Hg
Pressure
1014.22 hPa
Current Rain
0.04"